createdAt,value
2018-06-20T09:08:39.637Z,79.42
2018-06-20T09:11:22.169Z,79.80
2018-06-20T09:14:02.814Z,85.54
2018-06-20T09:16:48.477Z,84.59
2018-06-20T09:19:30.669Z,84.07
2018-06-20T09:22:09.232Z,85.97
2018-06-20T09:24:51.970Z,87.15
2018-06-20T09:27:31.966Z,88.75
2018-06-20T09:30:14.152Z,88.40
2018-06-20T09:32:53.528Z,91.19
2018-06-20T09:35:35.322Z,90.59
2018-06-20T09:38:18.294Z,89.64
2018-06-20T09:40:57.388Z,90.22
2018-06-20T09:43:35.209Z,89.67
2018-06-20T09:46:14.253Z,88.71
2018-06-20T09:48:52.332Z,88.40
2018-06-20T09:51:31.788Z,86.14
2018-06-20T09:54:09.883Z,86.05
2018-06-20T09:56:49.531Z,86.14
2018-06-20T09:59:37.874Z,85.53
2018-06-20T10:02:20.059Z,84.33
2018-06-20T10:05:00.632Z,85.87
2018-06-20T10:07:41.646Z,85.96
2018-06-20T10:10:21.643Z,87.35
2018-06-20T10:13:04.959Z,86.89
2018-06-20T10:15:42.143Z,87.26
2018-06-20T10:18:22.598Z,87.02
2018-06-20T10:21:01.244Z,85.57
2018-06-20T10:23:38.737Z,85.10
2018-06-20T10:26:17.975Z,84.55
2018-06-20T10:28:56.329Z,83.95
2018-06-20T10:31:39.603Z,84.19
2018-06-20T10:34:17.594Z,83.25
2018-06-20T10:36:55.407Z,84.14
2018-06-20T10:39:32.417Z,85.45
2018-06-20T10:42:18.873Z,84.81
2018-06-20T10:45:00.182Z,84.26
2018-06-20T10:50:32.667Z,85.59
2018-06-20T10:53:13.369Z,85.92
2018-06-20T10:55:52.030Z,84.76
2018-06-20T10:58:49.112Z,85.10
2018-06-20T11:01:38.262Z,85.40
2018-06-20T11:04:17.548Z,86.15
2018-06-20T11:06:58.555Z,85.64
2018-06-20T11:09:39.198Z,85.69
2018-06-20T11:12:25.126Z,85.68
2018-06-20T11:15:02.665Z,86.68
2018-06-20T11:17:44.853Z,86.41
2018-06-20T11:20:40.495Z,89.36
2018-06-20T11:23:23.123Z,89.08
2018-06-20T11:26:01.336Z,90.20
2018-06-20T11:28:41.240Z,88.80
2018-06-20T11:34:53.062Z,88.95
2018-06-20T11:37:31.134Z,89.20
2018-06-20T11:40:11.044Z,89.13
2018-06-20T11:42:52.300Z,89.01
2018-06-20T11:45:34.027Z,90.92
2018-06-20T11:48:12.115Z,91.67
2018-06-20T11:50:50.422Z,92.14
2018-06-20T11:53:27.756Z,93.21
2018-06-20T11:56:06.204Z,92.32
2018-06-20T11:58:48.044Z,92.18
2018-06-20T12:01:32.880Z,91.67
2018-06-20T12:04:14.286Z,92.06
2018-06-20T12:06:56.477Z,91.70
2018-06-20T12:09:36.117Z,92.05
2018-06-20T12:12:17.425Z,91.66
2018-06-20T12:14:58.884Z,91.94
2018-06-20T12:17:38.916Z,91.99
2018-06-20T12:20:19.324Z,91.62
2018-06-20T12:23:00.318Z,89.92
2018-06-20T12:25:39.957Z,89.82
2018-06-20T12:28:20.808Z,90.28
2018-06-20T12:31:02.970Z,90.28
2018-06-20T12:33:42.448Z,90.26
2018-06-20T12:36:22.513Z,90.17
2018-06-20T12:39:02.785Z,89.86
2018-06-20T12:41:43.876Z,89.83
2018-06-20T12:44:30.762Z,91.01
2018-06-20T12:48:18.418Z,89.95
2018-06-20T12:50:55.142Z,90.99
2018-06-20T12:53:32.305Z,90.67
2018-06-20T12:56:11.116Z,91.50
2018-06-20T13:05:04.885Z,90.95
